PAFA/FAI METAR and TAF weather

Enter ICAO airport designator
Station Type Date Time Source
PAFA METAR 2021/01/17 18:53 UTC NOAA

PAFA 171853Z 00000KT 10SM FEW050 SCT110 BKN190 M14/M17 A2950 RMK AO2 SLP003 T11391167


Station Type Date Time Source
PAFA Decoded METAR 2021/01/17 18:53 UTC NOAA

Fairbanks, Fairbanks International Airport, AK, United States (PAFA) 64-48-14N 147-52-34W 140M
Jan 17, 2021 - 01:53 PM EST / 2021.01.17 1853 UTC
Wind: Calm:0
Visibility: 10 mile(s):0
Sky conditions: mostly cloudy
Temperature: 7.0 F (-13.9 C)
Dew Point: 1.9 F (-16.7 C)
Relative Humidity: 79%
Pressure (altimeter): 29.5 in. Hg (998 hPa)
ob: PAFA 171853Z 00000KT 10SM FEW050 SCT110 BKN190 M14/M17 A2950 RMK AO2 SLP003 T11391167
cycle: 19

Station Type Date Time Source
PAFA TAF 2021/01/17 18:33 UTC NOAA

TAF TAF PAFA 171728Z 1718/1824 VRB04KT P6SM SCT050 BKN130 OVC190

Example: see airport list